sensor_id;sensor_type;location;lat;lon;timestamp;P1;durP1;ratioP1;P2;durP2;ratioP2
26588;SDS011;14235;48.532;8.722;2024-02-26T00:00:32;4.78;;;3.42;;
26588;SDS011;14235;48.532;8.722;2024-02-26T00:02:59;3.58;;;3.28;;
26588;SDS011;14235;48.532;8.722;2024-02-26T00:05:25;3.30;;;2.97;;
26588;SDS011;14235;48.532;8.722;2024-02-26T00:07:51;4.07;;;3.30;;
26588;SDS011;14235;48.532;8.722;2024-02-26T00:10:18;5.43;;;3.38;;
26588;SDS011;14235;48.532;8.722;2024-02-26T00:12:44;4.05;;;3.42;;
26588;SDS011;14235;48.532;8.722;2024-02-26T00:15:10;3.60;;;3.30;;
26588;SDS011;14235;48.532;8.722;2024-02-26T00:17:36;3.83;;;3.42;;
26588;SDS011;14235;48.532;8.722;2024-02-26T00:20:02;3.35;;;3.05;;
26588;SDS011;14235;48.532;8.722;2024-02-26T00:22:33;3.60;;;3.30;;
26588;SDS011;14235;48.532;8.722;2024-02-26T00:24:59;4.15;;;3.60;;
26588;SDS011;14235;48.532;8.722;2024-02-26T00:27:25;4.28;;;3.25;;
26588;SDS011;14235;48.532;8.722;2024-02-26T00:29:51;4.05;;;3.33;;
26588;SDS011;14235;48.532;8.722;2024-02-26T00:32:17;3.67;;;3.38;;
26588;SDS011;14235;48.532;8.722;2024-02-26T00:34:43;3.55;;;3.25;;
26588;SDS011;14235;48.532;8.722;2024-02-26T00:37:09;3.65;;;3.30;;
26588;SDS011;14235;48.532;8.722;2024-02-26T00:39:35;4.13;;;3.25;;
26588;SDS011;14235;48.532;8.722;2024-02-26T00:42:01;4.60;;;3.83;;
26588;SDS011;14235;48.532;8.722;2024-02-26T00:44:27;5.57;;;4.13;;
26588;SDS011;14235;48.532;8.722;2024-02-26T00:46:53;4.47;;;3.90;;
26588;SDS011;14235;48.532;8.722;2024-02-26T00:49:19;4.20;;;3.70;;
26588;SDS011;14235;48.532;8.722;2024-02-26T00:51:46;4.00;;;3.20;;
26588;SDS011;14235;48.532;8.722;2024-02-26T00:54:12;3.72;;;3.33;;
26588;SDS011;14235;48.532;8.722;2024-02-26T00:56:38;4.03;;;3.60;;
26588;SDS011;14235;48.532;8.722;2024-02-26T00:59:04;4.25;;;3.53;;
26588;SDS011;14235;48.532;8.722;2024-02-26T01:01:30;4.07;;;3.53;;
26588;SDS011;14235;48.532;8.722;2024-02-26T01:03:56;4.03;;;3.53;;
26588;SDS011;14235;48.532;8.722;2024-02-26T01:06:22;3.58;;;3.28;;
26588;SDS011;14235;48.532;8.722;2024-02-26T01:08:47;4.53;;;3.63;;
26588;SDS011;14235;48.532;8.722;2024-02-26T01:11:14;3.83;;;3.35;;
26588;SDS011;14235;48.532;8.722;2024-02-26T01:13:40;4.80;;;3.67;;
26588;SDS011;14235;48.532;8.722;2024-02-26T01:16:06;5.40;;;3.40;;
26588;SDS011;14235;48.532;8.722;2024-02-26T01:18:32;3.58;;;3.28;;
26588;SDS011;14235;48.532;8.722;2024-02-26T01:20:57;4.47;;;3.92;;
26588;SDS011;14235;48.532;8.722;2024-02-26T01:23:24;3.90;;;3.50;;
26588;SDS011;14235;48.532;8.722;2024-02-26T01:25:50;4.18;;;3.70;;
26588;SDS011;14235;48.532;8.722;2024-02-26T01:28:16;3.60;;;3.30;;
26588;SDS011;14235;48.532;8.722;2024-02-26T01:30:42;3.60;;;3.30;;
26588;SDS011;14235;48.532;8.722;2024-02-26T01:33:08;4.10;;;3.25;;
26588;SDS011;14235;48.532;8.722;2024-02-26T01:35:34;3.80;;;3.38;;
26588;SDS011;14235;48.532;8.722;2024-02-26T01:38:01;5.18;;;3.42;;
26588;SDS011;14235;48.532;8.722;2024-02-26T01:40:27;3.60;;;3.20;;
26588;SDS011;14235;48.532;8.722;2024-02-26T01:42:53;4.18;;;3.17;;
26588;SDS011;14235;48.532;8.722;2024-02-26T01:45:19;3.78;;;3.38;;
26588;SDS011;14235;48.532;8.722;2024-02-26T01:47:50;5.72;;;3.80;;
26588;SDS011;14235;48.532;8.722;2024-02-26T01:50:16;4.38;;;3.95;;
26588;SDS011;14235;48.532;8.722;2024-02-26T01:52:43;3.40;;;3.10;;
26588;SDS011;14235;48.532;8.722;2024-02-26T01:55:09;3.60;;;3.17;;
26588;SDS011;14235;48.532;8.722;2024-02-26T01:57:35;4.18;;;3.63;;
26588;SDS011;14235;48.532;8.722;2024-02-26T02:00:01;4.78;;;3.58;;
26588;SDS011;14235;48.532;8.722;2024-02-26T02:02:30;4.10;;;3.60;;
26588;SDS011;14235;48.532;8.722;2024-02-26T02:04:56;3.90;;;3.50;;
26588;SDS011;14235;48.532;8.722;2024-02-26T02:07:22;3.72;;;3.25;;
26588;SDS011;14235;48.532;8.722;2024-02-26T02:09:49;4.75;;;3.25;;
26588;SDS011;14235;48.532;8.722;2024-02-26T02:12:15;3.08;;;2.78;;
26588;SDS011;14235;48.532;8.722;2024-02-26T02:14:41;3.72;;;3.08;;
26588;SDS011;14235;48.532;8.722;2024-02-26T02:17:07;4.28;;;2.75;;
26588;SDS011;14235;48.532;8.722;2024-02-26T02:19:33;3.70;;;3.40;;
26588;SDS011;14235;48.532;8.722;2024-02-26T02:21:59;4.28;;;3.33;;
26588;SDS011;14235;48.532;8.722;2024-02-26T02:24:25;2.95;;;2.75;;
26588;SDS011;14235;48.532;8.722;2024-02-26T02:26:51;4.03;;;3.60;;
26588;SDS011;14235;48.532;8.722;2024-02-26T02:29:17;4.78;;;3.10;;
26588;SDS011;14235;48.532;8.722;2024-02-26T02:31:43;3.20;;;2.90;;
26588;SDS011;14235;48.532;8.722;2024-02-26T02:34:09;6.65;;;4.03;;
26588;SDS011;14235;48.532;8.722;2024-02-26T02:36:35;4.78;;;3.10;;
26588;SDS011;14235;48.532;8.722;2024-02-26T02:39:13;4.00;;;3.33;;
26588;SDS011;14235;48.532;8.722;2024-02-26T02:41:39;3.40;;;3.10;;
26588;SDS011;14235;48.532;8.722;2024-02-26T02:44:05;3.55;;;3.10;;
26588;SDS011;14235;48.532;8.722;2024-02-26T02:46:31;5.60;;;3.17;;
26588;SDS011;14235;48.532;8.722;2024-02-26T02:48:58;3.70;;;3.40;;
26588;SDS011;14235;48.532;8.722;2024-02-26T02:51:24;3.78;;;3.38;;
26588;SDS011;14235;48.532;8.722;2024-02-26T02:53:50;3.60;;;3.30;;
26588;SDS011;14235;48.532;8.722;2024-02-26T02:56:16;5.07;;;3.00;;
26588;SDS011;14235;48.532;8.722;2024-02-26T02:58:42;3.42;;;3.13;;
26588;SDS011;14235;48.532;8.722;2024-02-26T03:01:08;3.40;;;3.10;;
26588;SDS011;14235;48.532;8.722;2024-02-26T03:03:34;4.18;;;3.20;;
26588;SDS011;14235;48.532;8.722;2024-02-26T03:06:01;4.32;;;3.10;;
26588;SDS011;14235;48.532;8.722;2024-02-26T03:08:27;3.33;;;3.00;;
26588;SDS011;14235;48.532;8.722;2024-02-26T03:10:53;3.97;;;3.42;;
26588;SDS011;14235;48.532;8.722;2024-02-26T03:13:19;2.97;;;2.72;;
26588;SDS011;14235;48.532;8.722;2024-02-26T03:15:45;3.33;;;3.05;;
26588;SDS011;14235;48.532;8.722;2024-02-26T03:18:11;3.80;;;3.28;;
26588;SDS011;14235;48.532;8.722;2024-02-26T03:20:37;3.85;;;3.45;;
26588;SDS011;14235;48.532;8.722;2024-02-26T03:23:03;3.20;;;2.90;;
26588;SDS011;14235;48.532;8.722;2024-02-26T03:25:29;4.00;;;2.78;;
26588;SDS011;14235;48.532;8.722;2024-02-26T03:27:55;2.67;;;2.47;;
26588;SDS011;14235;48.532;8.722;2024-02-26T03:30:21;3.30;;;3.00;;
26588;SDS011;14235;48.532;8.722;2024-02-26T03:32:47;5.35;;;3.25;;
26588;SDS011;14235;48.532;8.722;2024-02-26T03:35:13;3.90;;;2.72;;
26588;SDS011;14235;48.532;8.722;2024-02-26T03:37:39;3.35;;;3.05;;
26588;SDS011;14235;48.532;8.722;2024-02-26T03:40:05;3.50;;;2.88;;
26588;SDS011;14235;48.532;8.722;2024-02-26T03:42:31;3.65;;;3.03;;
26588;SDS011;14235;48.532;8.722;2024-02-26T03:44:57;3.20;;;2.83;;
26588;SDS011;14235;48.532;8.722;2024-02-26T03:47:24;3.42;;;3.13;;
26588;SDS011;14235;48.532;8.722;2024-02-26T03:49:49;3.03;;;2.80;;
26588;SDS011;14235;48.532;8.722;2024-02-26T03:52:15;3.17;;;2.90;;
26588;SDS011;14235;48.532;8.722;2024-02-26T03:54:41;3.40;;;3.10;;
26588;SDS011;14235;48.532;8.722;2024-02-26T03:57:07;3.58;;;3.10;;
26588;SDS011;14235;48.532;8.722;2024-02-26T03:59:33;3.30;;;3.00;;
26588;SDS011;14235;48.532;8.722;2024-02-26T04:01:59;3.13;;;2.63;;
26588;SDS011;14235;48.532;8.722;2024-02-26T04:04:26;3.25;;;2.95;;
26588;SDS011;14235;48.532;8.722;2024-02-26T04:06:52;3.38;;;3.08;;
26588;SDS011;14235;48.532;8.722;2024-02-26T04:09:18;4.20;;;2.70;;
26588;SDS011;14235;48.532;8.722;2024-02-26T04:11:44;4.90;;;3.00;;
26588;SDS011;14235;48.532;8.722;2024-02-26T04:14:10;2.97;;;2.75;;
26588;SDS011;14235;48.532;8.722;2024-02-26T04:16:37;3.20;;;2.97;;
26588;SDS011;14235;48.532;8.722;2024-02-26T04:19:03;3.58;;;2.90;;
26588;SDS011;14235;48.532;8.722;2024-02-26T04:21:29;4.40;;;3.20;;
26588;SDS011;14235;48.532;8.722;2024-02-26T04:23:55;2.90;;;2.70;;
26588;SDS011;14235;48.532;8.722;2024-02-26T04:26:21;3.35;;;2.90;;
26588;SDS011;14235;48.532;8.722;2024-02-26T04:28:47;3.17;;;2.97;;
26588;SDS011;14235;48.532;8.722;2024-02-26T04:31:13;3.30;;;2.90;;
26588;SDS011;14235;48.532;8.722;2024-02-26T04:33:39;4.28;;;2.90;;
26588;SDS011;14235;48.532;8.722;2024-02-26T04:36:11;3.85;;;3.50;;
26588;SDS011;14235;48.532;8.722;2024-02-26T04:38:37;4.15;;;3.75;;
26588;SDS011;14235;48.532;8.722;2024-02-26T04:41:03;3.67;;;3.17;;
26588;SDS011;14235;48.532;8.722;2024-02-26T04:43:29;3.13;;;2.83;;
26588;SDS011;14235;48.532;8.722;2024-02-26T04:45:55;4.22;;;3.00;;
26588;SDS011;14235;48.532;8.722;2024-02-26T04:48:22;4.00;;;2.70;;
26588;SDS011;14235;48.532;8.722;2024-02-26T04:50:48;5.05;;;2.95;;
26588;SDS011;14235;48.532;8.722;2024-02-26T04:53:14;3.30;;;3.00;;
26588;SDS011;14235;48.532;8.722;2024-02-26T04:55:40;5.07;;;3.10;;
26588;SDS011;14235;48.532;8.722;2024-02-26T04:58:06;3.35;;;3.10;;
26588;SDS011;14235;48.532;8.722;2024-02-26T05:00:32;2.75;;;2.55;;
26588;SDS011;14235;48.532;8.722;2024-02-26T05:02:58;3.50;;;3.10;;
26588;SDS011;14235;48.532;8.722;2024-02-26T05:05:24;3.58;;;2.80;;
26588;SDS011;14235;48.532;8.722;2024-02-26T05:07:50;3.08;;;2.80;;
26588;SDS011;14235;48.532;8.722;2024-02-26T05:10:16;3.13;;;2.83;;
26588;SDS011;14235;48.532;8.722;2024-02-26T05:12:42;3.50;;;2.58;;
26588;SDS011;14235;48.532;8.722;2024-02-26T05:15:09;3.17;;;2.88;;
26588;SDS011;14235;48.532;8.722;2024-02-26T05:17:35;3.67;;;3.38;;
26588;SDS011;14235;48.532;8.722;2024-02-26T05:20:01;3.47;;;3.00;;
26588;SDS011;14235;48.532;8.722;2024-02-26T05:22:27;4.03;;;3.10;;
26588;SDS011;14235;48.532;8.722;2024-02-26T05:24:53;3.40;;;3.10;;
26588;SDS011;14235;48.532;8.722;2024-02-26T05:27:19;4.40;;;3.22;;
26588;SDS011;14235;48.532;8.722;2024-02-26T05:29:45;3.95;;;3.45;;
26588;SDS011;14235;48.532;8.722;2024-02-26T05:32:11;3.10;;;2.88;;
26588;SDS011;14235;48.532;8.722;2024-02-26T05:34:37;3.42;;;2.92;;
26588;SDS011;14235;48.532;8.722;2024-02-26T05:37:03;4.55;;;3.00;;
26588;SDS011;14235;48.532;8.722;2024-02-26T05:39:29;3.33;;;2.97;;
26588;SDS011;14235;48.532;8.722;2024-02-26T05:41:55;3.55;;;2.90;;
26588;SDS011;14235;48.532;8.722;2024-02-26T05:44:22;3.80;;;3.33;;
26588;SDS011;14235;48.532;8.722;2024-02-26T05:46:48;2.95;;;2.78;;
26588;SDS011;14235;48.532;8.722;2024-02-26T05:49:14;3.72;;;3.22;;
26588;SDS011;14235;48.532;8.722;2024-02-26T05:51:40;3.55;;;3.25;;
26588;SDS011;14235;48.532;8.722;2024-02-26T05:54:06;3.63;;;3.25;;
26588;SDS011;14235;48.532;8.722;2024-02-26T05:56:33;4.38;;;3.10;;
26588;SDS011;14235;48.532;8.722;2024-02-26T05:58:59;4.55;;;3.60;;
26588;SDS011;14235;48.532;8.722;2024-02-26T06:01:25;6.97;;;3.33;;
26588;SDS011;14235;48.532;8.722;2024-02-26T06:03:51;4.85;;;3.03;;
26588;SDS011;14235;48.532;8.722;2024-02-26T06:06:17;3.55;;;2.72;;
26588;SDS011;14235;48.532;8.722;2024-02-26T06:08:43;3.03;;;2.70;;
26588;SDS011;14235;48.532;8.722;2024-02-26T06:11:09;3.25;;;2.95;;
26588;SDS011;14235;48.532;8.722;2024-02-26T06:13:35;3.30;;;2.78;;
26588;SDS011;14235;48.532;8.722;2024-02-26T06:16:01;4.88;;;3.67;;
26588;SDS011;14235;48.532;8.722;2024-02-26T06:18:27;3.55;;;3.25;;
26588;SDS011;14235;48.532;8.722;2024-02-26T06:20:53;4.18;;;3.63;;
26588;SDS011;14235;48.532;8.722;2024-02-26T06:23:19;3.20;;;2.90;;
26588;SDS011;14235;48.532;8.722;2024-02-26T06:25:45;4.38;;;2.97;;
26588;SDS011;14235;48.532;8.722;2024-02-26T06:28:13;3.03;;;2.70;;
26588;SDS011;14235;48.532;8.722;2024-02-26T06:30:39;3.88;;;3.10;;
26588;SDS011;14235;48.532;8.722;2024-02-26T06:33:05;3.55;;;2.90;;
26588;SDS011;14235;48.532;8.722;2024-02-26T06:35:31;3.67;;;3.38;;
26588;SDS011;14235;48.532;8.722;2024-02-26T06:37:57;3.58;;;3.28;;
26588;SDS011;14235;48.532;8.722;2024-02-26T06:40:23;3.92;;;3.10;;
26588;SDS011;14235;48.532;8.722;2024-02-26T06:42:50;5.85;;;3.90;;
26588;SDS011;14235;48.532;8.722;2024-02-26T06:45:16;3.85;;;3.55;;
26588;SDS011;14235;48.532;8.722;2024-02-26T06:47:44;3.75;;;3.45;;
26588;SDS011;14235;48.532;8.722;2024-02-26T06:50:13;3.28;;;2.67;;
26588;SDS011;14235;48.532;8.722;2024-02-26T06:52:39;3.78;;;3.42;;
26588;SDS011;14235;48.532;8.722;2024-02-26T06:55:05;3.42;;;3.13;;
26588;SDS011;14235;48.532;8.722;2024-02-26T06:57:33;3.92;;;3.08;;
26588;SDS011;14235;48.532;8.722;2024-02-26T06:59:59;3.65;;;3.20;;
26588;SDS011;14235;48.532;8.722;2024-02-26T07:02:25;3.45;;;3.10;;
26588;SDS011;14235;48.532;8.722;2024-02-26T07:04:51;3.65;;;2.85;;
26588;SDS011;14235;48.532;8.722;2024-02-26T07:07:17;3.85;;;3.50;;
26588;SDS011;14235;48.532;8.722;2024-02-26T07:09:43;3.85;;;3.47;;
26588;SDS011;14235;48.532;8.722;2024-02-26T07:12:09;3.95;;;3.33;;
26588;SDS011;14235;48.532;8.722;2024-02-26T07:14:35;2.70;;;2.50;;
26588;SDS011;14235;48.532;8.722;2024-02-26T07:17:02;2.97;;;2.67;;
26588;SDS011;14235;48.532;8.722;2024-02-26T07:19:28;2.92;;;2.65;;
26588;SDS011;14235;48.532;8.722;2024-02-26T07:21:54;2.53;;;2.33;;
26588;SDS011;14235;48.532;8.722;2024-02-26T07:24:20;3.90;;;3.15;;
26588;SDS011;14235;48.532;8.722;2024-02-26T07:26:46;3.30;;;3.00;;
26588;SDS011;14235;48.532;8.722;2024-02-26T07:29:12;3.35;;;3.05;;
26588;SDS011;14235;48.532;8.722;2024-02-26T07:31:38;3.15;;;2.85;;
26588;SDS011;14235;48.532;8.722;2024-02-26T07:34:04;3.15;;;2.85;;
26588;SDS011;14235;48.532;8.722;2024-02-26T07:36:30;3.38;;;2.92;;
26588;SDS011;14235;48.532;8.722;2024-02-26T07:38:56;3.00;;;2.80;;
26588;SDS011;14235;48.532;8.722;2024-02-26T07:41:22;3.60;;;2.90;;
26588;SDS011;14235;48.532;8.722;2024-02-26T07:43:48;3.40;;;3.10;;
26588;SDS011;14235;48.532;8.722;2024-02-26T07:46:14;3.15;;;2.95;;
26588;SDS011;14235;48.532;8.722;2024-02-26T07:48:40;3.50;;;3.20;;
26588;SDS011;14235;48.532;8.722;2024-02-26T07:51:06;3.88;;;3.58;;
26588;SDS011;14235;48.532;8.722;2024-02-26T07:53:32;4.00;;;3.33;;
26588;SDS011;14235;48.532;8.722;2024-02-26T07:55:58;4.88;;;3.60;;
26588;SDS011;14235;48.532;8.722;2024-02-26T07:58:24;3.92;;;3.53;;
26588;SDS011;14235;48.532;8.722;2024-02-26T08:00:50;4.10;;;3.70;;
26588;SDS011;14235;48.532;8.722;2024-02-26T08:03:16;3.88;;;3.53;;
26588;SDS011;14235;48.532;8.722;2024-02-26T08:05:42;5.40;;;4.03;;
26588;SDS011;14235;48.532;8.722;2024-02-26T08:08:08;3.85;;;3.50;;
26588;SDS011;14235;48.532;8.722;2024-02-26T08:10:34;4.10;;;3.70;;
26588;SDS011;14235;48.532;8.722;2024-02-26T08:13:00;6.03;;;5.40;;
26588;SDS011;14235;48.532;8.722;2024-02-26T08:15:33;19.90;;;15.73;;
26588;SDS011;14235;48.532;8.722;2024-02-26T08:18:00;14.57;;;11.85;;
26588;SDS011;14235;48.532;8.722;2024-02-26T08:20:28;12.48;;;8.82;;
26588;SDS011;14235;48.532;8.722;2024-02-26T08:22:54;5.68;;;4.93;;
26588;SDS011;14235;48.532;8.722;2024-02-26T08:25:20;6.57;;;4.63;;
26588;SDS011;14235;48.532;8.722;2024-02-26T08:27:46;5.20;;;4.65;;
26588;SDS011;14235;48.532;8.722;2024-02-26T08:30:13;4.88;;;4.47;;
26588;SDS011;14235;48.532;8.722;2024-02-26T08:32:41;4.97;;;4.47;;
26588;SDS011;14235;48.532;8.722;2024-02-26T08:35:07;5.13;;;4.68;;
26588;SDS011;14235;48.532;8.722;2024-02-26T08:37:33;6.28;;;5.13;;
26588;SDS011;14235;48.532;8.722;2024-02-26T08:39:59;5.15;;;4.50;;
26588;SDS011;14235;48.532;8.722;2024-02-26T08:42:25;5.88;;;4.82;;
26588;SDS011;14235;48.532;8.722;2024-02-26T08:44:51;5.97;;;4.57;;
26588;SDS011;14235;48.532;8.722;2024-02-26T08:47:19;7.90;;;5.95;;
26588;SDS011;14235;48.532;8.722;2024-02-26T08:49:45;7.60;;;5.85;;
26588;SDS011;14235;48.532;8.722;2024-02-26T08:52:11;9.32;;;5.60;;
26588;SDS011;14235;48.532;8.722;2024-02-26T08:54:38;6.50;;;5.68;;
26588;SDS011;14235;48.532;8.722;2024-02-26T08:57:05;5.20;;;4.70;;
26588;SDS011;14235;48.532;8.722;2024-02-26T08:59:31;8.40;;;5.38;;
26588;SDS011;14235;48.532;8.722;2024-02-26T09:01:57;5.25;;;4.75;;
26588;SDS011;14235;48.532;8.722;2024-02-26T09:04:23;5.95;;;5.03;;
26588;SDS011;14235;48.532;8.722;2024-02-26T09:06:49;4.70;;;4.22;;
26588;SDS011;14235;48.532;8.722;2024-02-26T09:09:15;5.25;;;4.25;;
26588;SDS011;14235;48.532;8.722;2024-02-26T09:11:41;4.80;;;4.40;;
26588;SDS011;14235;48.532;8.722;2024-02-26T09:14:07;4.10;;;3.22;;
26588;SDS011;14235;48.532;8.722;2024-02-26T09:16:33;3.88;;;2.90;;
26588;SDS011;14235;48.532;8.722;2024-02-26T09:18:59;3.55;;;3.25;;
26588;SDS011;14235;48.532;8.722;2024-02-26T09:21:25;3.95;;;3.58;;
26588;SDS011;14235;48.532;8.722;2024-02-26T09:23:51;3.80;;;3.50;;
26588;SDS011;14235;48.532;8.722;2024-02-26T09:26:18;4.88;;;3.60;;
26588;SDS011;14235;48.532;8.722;2024-02-26T09:28:44;5.60;;;5.13;;
26588;SDS011;14235;48.532;8.722;2024-02-26T09:31:10;4.35;;;4.05;;
26588;SDS011;14235;48.532;8.722;2024-02-26T09:33:36;4.38;;;3.00;;
26588;SDS011;14235;48.532;8.722;2024-02-26T09:36:03;3.30;;;2.90;;
26588;SDS011;14235;48.532;8.722;2024-02-26T09:38:29;3.20;;;2.90;;
26588;SDS011;14235;48.532;8.722;2024-02-26T09:40:56;3.13;;;2.78;;
26588;SDS011;14235;48.532;8.722;2024-02-26T09:43:23;3.75;;;2.80;;
26588;SDS011;14235;48.532;8.722;2024-02-26T09:45:53;4.80;;;3.10;;
26588;SDS011;14235;48.532;8.722;2024-02-26T09:48:19;3.20;;;2.95;;
26588;SDS011;14235;48.532;8.722;2024-02-26T09:50:45;5.00;;;2.60;;
26588;SDS011;14235;48.532;8.722;2024-02-26T09:53:12;2.95;;;2.75;;
26588;SDS011;14235;48.532;8.722;2024-02-26T09:55:40;2.80;;;2.60;;
26588;SDS011;14235;48.532;8.722;2024-02-26T09:58:06;3.10;;;2.63;;
26588;SDS011;14235;48.532;8.722;2024-02-26T10:00:32;2.88;;;2.47;;
26588;SDS011;14235;48.532;8.722;2024-02-26T10:03:02;3.25;;;2.83;;
26588;SDS011;14235;48.532;8.722;2024-02-26T10:05:29;2.40;;;2.28;;
26588;SDS011;14235;48.532;8.722;2024-02-26T10:07:55;3.13;;;2.70;;
26588;SDS011;14235;48.532;8.722;2024-02-26T10:10:22;3.33;;;3.10;;
26588;SDS011;14235;48.532;8.722;2024-02-26T10:12:48;4.35;;;2.95;;
26588;SDS011;14235;48.532;8.722;2024-02-26T10:15:15;2.83;;;2.58;;
26588;SDS011;14235;48.532;8.722;2024-02-26T10:17:41;2.50;;;2.30;;
26588;SDS011;14235;48.532;8.722;2024-02-26T10:20:13;2.40;;;2.20;;
26588;SDS011;14235;48.532;8.722;2024-02-26T10:22:40;3.25;;;2.95;;
26588;SDS011;14235;48.532;8.722;2024-02-26T10:25:07;2.97;;;2.78;;
26588;SDS011;14235;48.532;8.722;2024-02-26T10:27:33;2.20;;;2.10;;
26588;SDS011;14235;48.532;8.722;2024-02-26T10:30:02;2.17;;;2.08;;
26588;SDS011;14235;48.532;8.722;2024-02-26T10:32:29;1.90;;;1.80;;
26588;SDS011;14235;48.532;8.722;2024-02-26T10:34:56;3.10;;;2.17;;
26588;SDS011;14235;48.532;8.722;2024-02-26T10:37:22;2.28;;;2.10;;
26588;SDS011;14235;48.532;8.722;2024-02-26T10:39:50;2.25;;;2.10;;
26588;SDS011;14235;48.532;8.722;2024-02-26T10:42:16;1.65;;;1.60;;
26588;SDS011;14235;48.532;8.722;2024-02-26T10:44:44;3.15;;;1.80;;
26588;SDS011;14235;48.532;8.722;2024-02-26T10:47:10;2.30;;;2.10;;
26588;SDS011;14235;48.532;8.722;2024-02-26T10:49:36;1.88;;;1.77;;
26588;SDS011;14235;48.532;8.722;2024-02-26T10:52:03;2.33;;;2.13;;
26588;SDS011;14235;48.532;8.722;2024-02-26T10:54:30;2.20;;;2.05;;
26588;SDS011;14235;48.532;8.722;2024-02-26T10:56:57;2.58;;;2.10;;
26588;SDS011;14235;48.532;8.722;2024-02-26T10:59:24;2.53;;;2.25;;
26588;SDS011;14235;48.532;8.722;2024-02-26T11:01:50;2.60;;;2.10;;
26588;SDS011;14235;48.532;8.722;2024-02-26T11:04:16;2.53;;;2.38;;
26588;SDS011;14235;48.532;8.722;2024-02-26T11:06:43;3.15;;;2.50;;
26588;SDS011;14235;48.532;8.722;2024-02-26T11:09:10;2.45;;;2.25;;
26588;SDS011;14235;48.532;8.722;2024-02-26T11:11:38;2.97;;;1.80;;
26588;SDS011;14235;48.532;8.722;2024-02-26T11:14:05;2.10;;;2.00;;
26588;SDS011;14235;48.532;8.722;2024-02-26T11:16:33;2.15;;;2.03;;
26588;SDS011;14235;48.532;8.722;2024-02-26T11:19:00;2.10;;;2.00;;
26588;SDS011;14235;48.532;8.722;2024-02-26T11:21:27;2.30;;;2.10;;
26588;SDS011;14235;48.532;8.722;2024-02-26T11:24:11;2.13;;;2.03;;
26588;SDS011;14235;48.532;8.722;2024-02-26T11:26:50;2.30;;;2.10;;
26588;SDS011;14235;48.532;8.722;2024-02-26T11:29:41;2.65;;;2.00;;
26588;SDS011;14235;48.532;8.722;2024-02-26T12:30:39;1.40;;;1.30;;
26588;SDS011;14235;48.532;8.722;2024-02-26T12:33:05;1.30;;;1.10;;
26588;SDS011;14235;48.532;8.722;2024-02-26T12:35:33;2.30;;;1.48;;
26588;SDS011;14235;48.532;8.722;2024-02-26T12:38:00;1.50;;;1.40;;
26588;SDS011;14235;48.532;8.722;2024-02-26T12:40:26;2.15;;;1.50;;
26588;SDS011;14235;48.532;8.722;2024-02-26T12:42:53;2.00;;;1.80;;
26588;SDS011;14235;48.532;8.722;2024-02-26T12:45:20;3.72;;;2.40;;
26588;SDS011;14235;48.532;8.722;2024-02-26T12:47:46;2.33;;;2.05;;
26588;SDS011;14235;48.532;8.722;2024-02-26T12:50:14;3.05;;;1.85;;
26588;SDS011;14235;48.532;8.722;2024-02-26T12:52:44;1.33;;;1.23;;
26588;SDS011;14235;48.532;8.722;2024-02-26T12:55:11;1.85;;;1.30;;
26588;SDS011;14235;48.532;8.722;2024-02-26T12:57:38;1.35;;;1.25;;
26588;SDS011;14235;48.532;8.722;2024-02-26T13:00:04;1.30;;;1.20;;
26588;SDS011;14235;48.532;8.722;2024-02-26T13:02:31;2.40;;;1.45;;
26588;SDS011;14235;48.532;8.722;2024-02-26T13:04:58;1.55;;;1.45;;
26588;SDS011;14235;48.532;8.722;2024-02-26T13:07:26;1.50;;;1.40;;
26588;SDS011;14235;48.532;8.722;2024-02-26T13:09:52;1.40;;;1.30;;
26588;SDS011;14235;48.532;8.722;2024-02-26T13:12:18;2.20;;;1.35;;
26588;SDS011;14235;48.532;8.722;2024-02-26T13:14:44;1.30;;;1.20;;
26588;SDS011;14235;48.532;8.722;2024-02-26T13:17:10;1.50;;;1.40;;
26588;SDS011;14235;48.532;8.722;2024-02-26T13:19:36;1.73;;;1.27;;
26588;SDS011;14235;48.532;8.722;2024-02-26T13:22:05;2.17;;;1.25;;
26588;SDS011;14235;48.532;8.722;2024-02-26T13:24:34;1.13;;;1.13;;
26588;SDS011;14235;48.532;8.722;2024-02-26T13:27:01;2.13;;;1.35;;
26588;SDS011;14235;48.532;8.722;2024-02-26T13:29:30;1.70;;;1.10;;
26588;SDS011;14235;48.532;8.722;2024-02-26T13:31:59;1.55;;;1.30;;
26588;SDS011;14235;48.532;8.722;2024-02-26T13:34:25;0.75;;;0.75;;
26588;SDS011;14235;48.532;8.722;2024-02-26T13:36:51;1.30;;;1.20;;
26588;SDS011;14235;48.532;8.722;2024-02-26T13:39:21;1.35;;;1.10;;
26588;SDS011;14235;48.532;8.722;2024-02-26T13:41:47;0.70;;;0.70;;
26588;SDS011;14235;48.532;8.722;2024-02-26T13:44:13;1.27;;;1.17;;
26588;SDS011;14235;48.532;8.722;2024-02-26T13:46:39;0.73;;;0.73;;
26588;SDS011;14235;48.532;8.722;2024-02-26T13:49:07;0.55;;;0.52;;
26588;SDS011;14235;48.532;8.722;2024-02-26T13:51:33;0.90;;;0.45;;
26588;SDS011;14235;48.532;8.722;2024-02-26T13:54:00;0.50;;;0.50;;
26588;SDS011;14235;48.532;8.722;2024-02-26T13:56:26;0.90;;;0.90;;
26588;SDS011;14235;48.532;8.722;2024-02-26T13:58:52;0.40;;;0.40;;
26588;SDS011;14235;48.532;8.722;2024-02-26T14:01:18;0.73;;;0.73;;
26588;SDS011;14235;48.532;8.722;2024-02-26T14:03:44;0.80;;;0.70;;
26588;SDS011;14235;48.532;8.722;2024-02-26T14:06:10;3.50;;;0.70;;
26588;SDS011;14235;48.532;8.722;2024-02-26T14:08:36;0.73;;;0.50;;
26588;SDS011;14235;48.532;8.722;2024-02-26T14:11:02;4.00;;;1.20;;
26588;SDS011;14235;48.532;8.722;2024-02-26T14:13:28;2.47;;;0.98;;
26588;SDS011;14235;48.532;8.722;2024-02-26T14:15:54;2.65;;;0.47;;
26588;SDS011;14235;48.532;8.722;2024-02-26T14:18:21;0.68;;;0.57;;
26588;SDS011;14235;48.532;8.722;2024-02-26T14:20:47;0.43;;;0.43;;
26588;SDS011;14235;48.532;8.722;2024-02-26T14:23:13;0.60;;;0.60;;
26588;SDS011;14235;48.532;8.722;2024-02-26T14:25:38;0.60;;;0.60;;
26588;SDS011;14235;48.532;8.722;2024-02-26T14:28:04;0.70;;;0.70;;
26588;SDS011;14235;48.532;8.722;2024-02-26T14:30:31;1.20;;;1.20;;
26588;SDS011;14235;48.532;8.722;2024-02-26T14:32:57;1.70;;;1.40;;
26588;SDS011;14235;48.532;8.722;2024-02-26T14:35:23;1.40;;;0.85;;
26588;SDS011;14235;48.532;8.722;2024-02-26T14:37:51;1.10;;;1.00;;
26588;SDS011;14235;48.532;8.722;2024-02-26T14:40:17;1.40;;;1.30;;
26588;SDS011;14235;48.532;8.722;2024-02-26T14:42:44;0.80;;;0.80;;
26588;SDS011;14235;48.532;8.722;2024-02-26T14:45:10;1.05;;;1.02;;
26588;SDS011;14235;48.532;8.722;2024-02-26T14:47:36;0.82;;;0.82;;
26588;SDS011;14235;48.532;8.722;2024-02-26T14:50:02;4.10;;;0.93;;
26588;SDS011;14235;48.532;8.722;2024-02-26T14:52:28;0.80;;;0.80;;
26588;SDS011;14235;48.532;8.722;2024-02-26T14:54:54;0.75;;;0.75;;
26588;SDS011;14235;48.532;8.722;2024-02-26T14:57:20;0.75;;;0.75;;
26588;SDS011;14235;48.532;8.722;2024-02-26T14:59:46;0.75;;;0.75;;
26588;SDS011;14235;48.532;8.722;2024-02-26T15:02:13;0.80;;;0.80;;
26588;SDS011;14235;48.532;8.722;2024-02-26T15:04:40;1.02;;;1.02;;
26588;SDS011;14235;48.532;8.722;2024-02-26T15:07:05;0.63;;;0.63;;
26588;SDS011;14235;48.532;8.722;2024-02-26T15:09:31;2.05;;;0.63;;
26588;SDS011;14235;48.532;8.722;2024-02-26T15:11:59;1.08;;;1.08;;
26588;SDS011;14235;48.532;8.722;2024-02-26T15:14:25;0.73;;;0.73;;
26588;SDS011;14235;48.532;8.722;2024-02-26T15:16:52;1.48;;;0.85;;
26588;SDS011;14235;48.532;8.722;2024-02-26T15:19:18;1.15;;;0.70;;
26588;SDS011;14235;48.532;8.722;2024-02-26T15:21:44;0.90;;;0.90;;
26588;SDS011;14235;48.532;8.722;2024-02-26T15:24:10;0.90;;;0.52;;
26588;SDS011;14235;48.532;8.722;2024-02-26T15:26:36;1.52;;;0.80;;
26588;SDS011;14235;48.532;8.722;2024-02-26T15:29:02;0.80;;;0.80;;
26588;SDS011;14235;48.532;8.722;2024-02-26T15:31:28;1.48;;;0.90;;
26588;SDS011;14235;48.532;8.722;2024-02-26T15:33:56;1.85;;;1.75;;
26588;SDS011;14235;48.532;8.722;2024-02-26T15:36:22;4.28;;;2.38;;
26588;SDS011;14235;48.532;8.722;2024-02-26T15:38:48;3.20;;;2.42;;
26588;SDS011;14235;48.532;8.722;2024-02-26T15:41:14;2.00;;;1.90;;